sensor_id;sensor_type;location;lat;lon;timestamp;temperature;humidity
15947;DHT22;8072;52.554;7.966;2023-04-12T00:01:16;6.40;99.90
15947;DHT22;8072;52.554;7.966;2023-04-12T00:03:42;6.40;99.90
15947;DHT22;8072;52.554;7.966;2023-04-12T00:06:07;6.40;99.90
15947;DHT22;8072;52.554;7.966;2023-04-12T00:08:34;6.40;99.90
15947;DHT22;8072;52.554;7.966;2023-04-12T00:11:01;6.40;99.90
15947;DHT22;8072;52.554;7.966;2023-04-12T00:13:27;6.40;99.90
15947;DHT22;8072;52.554;7.966;2023-04-12T00:15:57;6.40;99.90
15947;DHT22;8072;52.554;7.966;2023-04-12T00:18:23;6.40;99.90
15947;DHT22;8072;52.554;7.966;2023-04-12T00:20:53;6.40;99.90
15947;DHT22;8072;52.554;7.966;2023-04-12T00:23:19;6.40;99.90
15947;DHT22;8072;52.554;7.966;2023-04-12T00:25:45;6.40;99.90
15947;DHT22;8072;52.554;7.966;2023-04-12T00:28:11;6.40;99.90
15947;DHT22;8072;52.554;7.966;2023-04-12T00:30:37;6.40;99.90
15947;DHT22;8072;52.554;7.966;2023-04-12T00:33:03;6.50;99.90
15947;DHT22;8072;52.554;7.966;2023-04-12T00:35:29;6.40;99.90
15947;DHT22;8072;52.554;7.966;2023-04-12T00:37:54;6.40;99.90
15947;DHT22;8072;52.554;7.966;2023-04-12T00:40:20;6.40;99.90
15947;DHT22;8072;52.554;7.966;2023-04-12T00:42:46;6.50;99.90
15947;DHT22;8072;52.554;7.966;2023-04-12T00:45:12;6.50;99.90
15947;DHT22;8072;52.554;7.966;2023-04-12T00:47:39;6.50;99.90
15947;DHT22;8072;52.554;7.966;2023-04-12T00:50:07;6.50;99.90
15947;DHT22;8072;52.554;7.966;2023-04-12T00:52:34;6.50;99.90
15947;DHT22;8072;52.554;7.966;2023-04-12T00:55:02;6.50;99.90
15947;DHT22;8072;52.554;7.966;2023-04-12T00:57:34;6.50;99.90
15947;DHT22;8072;52.554;7.966;2023-04-12T01:00:08;6.50;99.90
15947;DHT22;8072;52.554;7.966;2023-04-12T01:02:41;6.60;99.90
15947;DHT22;8072;52.554;7.966;2023-04-12T01:05:08;6.60;99.90
15947;DHT22;8072;52.554;7.966;2023-04-12T01:10:40;6.60;99.90
15947;DHT22;8072;52.554;7.966;2023-04-12T01:13:22;6.60;99.90
15947;DHT22;8072;52.554;7.966;2023-04-12T01:16:06;6.60;99.90
15947;DHT22;8072;52.554;7.966;2023-04-12T01:18:36;6.60;99.90
15947;DHT22;8072;52.554;7.966;2023-04-12T01:21:15;6.60;99.90
15947;DHT22;8072;52.554;7.966;2023-04-12T01:26:45;6.60;99.90
15947;DHT22;8072;52.554;7.966;2023-04-12T01:29:14;6.60;99.90
15947;DHT22;8072;52.554;7.966;2023-04-12T01:31:53;6.70;99.90
15947;DHT22;8072;52.554;7.966;2023-04-12T01:34:21;6.70;99.90
15947;DHT22;8072;52.554;7.966;2023-04-12T01:36:47;6.70;99.90
15947;DHT22;8072;52.554;7.966;2023-04-12T01:39:15;6.70;99.90
15947;DHT22;8072;52.554;7.966;2023-04-12T01:41:41;6.70;99.90
15947;DHT22;8072;52.554;7.966;2023-04-12T01:44:12;6.70;99.90
15947;DHT22;8072;52.554;7.966;2023-04-12T01:46:39;6.70;99.90
15947;DHT22;8072;52.554;7.966;2023-04-12T01:49:05;6.70;99.90
15947;DHT22;8072;52.554;7.966;2023-04-12T01:51:57;6.70;99.90
15947;DHT22;8072;52.554;7.966;2023-04-12T01:54:32;6.70;99.90
15947;DHT22;8072;52.554;7.966;2023-04-12T01:57:01;6.70;99.90
15947;DHT22;8072;52.554;7.966;2023-04-12T01:59:31;6.70;99.90
15947;DHT22;8072;52.554;7.966;2023-04-12T02:01:59;6.70;99.90
15947;DHT22;8072;52.554;7.966;2023-04-12T02:04:26;6.70;99.90
15947;DHT22;8072;52.554;7.966;2023-04-12T02:06:52;6.80;99.90
15947;DHT22;8072;52.554;7.966;2023-04-12T02:09:18;6.80;99.90
15947;DHT22;8072;52.554;7.966;2023-04-12T02:11:48;6.80;99.90
15947;DHT22;8072;52.554;7.966;2023-04-12T02:14:14;6.80;99.90
15947;DHT22;8072;52.554;7.966;2023-04-12T02:16:40;6.80;99.90
15947;DHT22;8072;52.554;7.966;2023-04-12T02:19:09;6.90;99.90
15947;DHT22;8072;52.554;7.966;2023-04-12T02:21:42;6.90;99.90
15947;DHT22;8072;52.554;7.966;2023-04-12T02:24:09;6.90;99.90
15947;DHT22;8072;52.554;7.966;2023-04-12T02:26:37;7.00;99.90
15947;DHT22;8072;52.554;7.966;2023-04-12T02:29:07;7.00;99.90
15947;DHT22;8072;52.554;7.966;2023-04-12T02:31:34;7.00;99.90
15947;DHT22;8072;52.554;7.966;2023-04-12T02:34:01;7.10;99.90
15947;DHT22;8072;52.554;7.966;2023-04-12T02:36:27;7.10;99.90
15947;DHT22;8072;52.554;7.966;2023-04-12T02:38:54;7.10;99.90
15947;DHT22;8072;52.554;7.966;2023-04-12T02:41:21;7.10;99.90
15947;DHT22;8072;52.554;7.966;2023-04-12T02:43:47;7.10;99.90
15947;DHT22;8072;52.554;7.966;2023-04-12T02:46:23;7.10;99.90
15947;DHT22;8072;52.554;7.966;2023-04-12T02:48:49;7.20;99.90
15947;DHT22;8072;52.554;7.966;2023-04-12T02:51:15;7.20;99.90
15947;DHT22;8072;52.554;7.966;2023-04-12T02:53:41;7.20;99.90
15947;DHT22;8072;52.554;7.966;2023-04-12T02:56:07;7.20;99.90
15947;DHT22;8072;52.554;7.966;2023-04-12T02:58:35;7.20;99.90
15947;DHT22;8072;52.554;7.966;2023-04-12T03:01:02;7.30;99.90
15947;DHT22;8072;52.554;7.966;2023-04-12T03:03:32;7.20;99.90
15947;DHT22;8072;52.554;7.966;2023-04-12T03:05:58;7.20;99.90
15947;DHT22;8072;52.554;7.966;2023-04-12T03:08:25;7.20;99.90
15947;DHT22;8072;52.554;7.966;2023-04-12T03:10:51;7.20;99.90
15947;DHT22;8072;52.554;7.966;2023-04-12T03:13:17;7.20;99.90
15947;DHT22;8072;52.554;7.966;2023-04-12T03:15:42;7.20;99.90
15947;DHT22;8072;52.554;7.966;2023-04-12T03:18:08;7.30;99.90
15947;DHT22;8072;52.554;7.966;2023-04-12T03:20:34;7.30;99.90
15947;DHT22;8072;52.554;7.966;2023-04-12T03:23:00;7.30;99.90
15947;DHT22;8072;52.554;7.966;2023-04-12T03:25:26;7.30;99.90
15947;DHT22;8072;52.554;7.966;2023-04-12T03:27:52;7.30;99.90
15947;DHT22;8072;52.554;7.966;2023-04-12T03:30:18;7.40;99.90
15947;DHT22;8072;52.554;7.966;2023-04-12T03:32:43;7.40;99.90
15947;DHT22;8072;52.554;7.966;2023-04-12T03:35:12;7.40;99.90
15947;DHT22;8072;52.554;7.966;2023-04-12T03:37:41;7.40;99.90
15947;DHT22;8072;52.554;7.966;2023-04-12T03:40:08;7.50;99.90
15947;DHT22;8072;52.554;7.966;2023-04-12T03:42:34;7.50;99.90
15947;DHT22;8072;52.554;7.966;2023-04-12T03:45:01;7.50;99.90
15947;DHT22;8072;52.554;7.966;2023-04-12T03:47:27;7.60;99.90
15947;DHT22;8072;52.554;7.966;2023-04-12T03:50:04;7.70;99.90
15947;DHT22;8072;52.554;7.966;2023-04-12T03:52:35;7.80;99.90
15947;DHT22;8072;52.554;7.966;2023-04-12T03:55:02;7.90;99.90
15947;DHT22;8072;52.554;7.966;2023-04-12T03:57:28;8.10;99.90
15947;DHT22;8072;52.554;7.966;2023-04-12T03:59:53;8.20;99.90
15947;DHT22;8072;52.554;7.966;2023-04-12T04:02:19;8.30;99.90
15947;DHT22;8072;52.554;7.966;2023-04-12T04:04:45;8.40;99.90
15947;DHT22;8072;52.554;7.966;2023-04-12T04:07:11;8.40;99.90
15947;DHT22;8072;52.554;7.966;2023-04-12T04:09:37;8.50;99.90
15947;DHT22;8072;52.554;7.966;2023-04-12T04:12:03;8.50;99.90
15947;DHT22;8072;52.554;7.966;2023-04-12T04:14:28;8.50;99.90
15947;DHT22;8072;52.554;7.966;2023-04-12T04:16:54;8.50;99.90
15947;DHT22;8072;52.554;7.966;2023-04-12T04:19:20;8.60;99.90
15947;DHT22;8072;52.554;7.966;2023-04-12T04:21:46;8.50;99.90
15947;DHT22;8072;52.554;7.966;2023-04-12T04:24:14;8.50;99.90
15947;DHT22;8072;52.554;7.966;2023-04-12T04:26:43;8.50;99.90
15947;DHT22;8072;52.554;7.966;2023-04-12T04:29:10;8.60;99.90
15947;DHT22;8072;52.554;7.966;2023-04-12T04:31:36;8.60;99.90
15947;DHT22;8072;52.554;7.966;2023-04-12T04:34:05;8.50;99.90
15947;DHT22;8072;52.554;7.966;2023-04-12T04:36:35;8.50;99.90
15947;DHT22;8072;52.554;7.966;2023-04-12T04:39:03;8.50;99.90
15947;DHT22;8072;52.554;7.966;2023-04-12T04:41:32;8.40;99.90
15947;DHT22;8072;52.554;7.966;2023-04-12T04:44:06;8.50;99.90
15947;DHT22;8072;52.554;7.966;2023-04-12T04:46:36;8.50;99.90
15947;DHT22;8072;52.554;7.966;2023-04-12T04:49:03;8.50;99.90
15947;DHT22;8072;52.554;7.966;2023-04-12T04:51:29;8.50;99.90
15947;DHT22;8072;52.554;7.966;2023-04-12T04:53:55;8.50;99.90
15947;DHT22;8072;52.554;7.966;2023-04-12T04:56:21;8.60;99.90
15947;DHT22;8072;52.554;7.966;2023-04-12T04:58:49;8.60;99.90
15947;DHT22;8072;52.554;7.966;2023-04-12T05:01:15;8.60;99.90
15947;DHT22;8072;52.554;7.966;2023-04-12T05:03:44;8.60;99.90
15947;DHT22;8072;52.554;7.966;2023-04-12T05:06:10;8.60;99.90
15947;DHT22;8072;52.554;7.966;2023-04-12T05:08:36;8.60;99.90
15947;DHT22;8072;52.554;7.966;2023-04-12T05:11:02;8.60;99.90
15947;DHT22;8072;52.554;7.966;2023-04-12T05:13:28;8.60;99.90
15947;DHT22;8072;52.554;7.966;2023-04-12T05:15:53;8.60;99.90
15947;DHT22;8072;52.554;7.966;2023-04-12T05:18:19;8.60;99.90
15947;DHT22;8072;52.554;7.966;2023-04-12T05:20:45;8.70;99.90
15947;DHT22;8072;52.554;7.966;2023-04-12T05:23:13;8.70;99.90
15947;DHT22;8072;52.554;7.966;2023-04-12T05:25:48;8.70;99.90
15947;DHT22;8072;52.554;7.966;2023-04-12T05:28:15;8.80;99.90
15947;DHT22;8072;52.554;7.966;2023-04-12T05:30:42;8.80;99.90
15947;DHT22;8072;52.554;7.966;2023-04-12T05:33:08;8.80;99.90
15947;DHT22;8072;52.554;7.966;2023-04-12T05:35:34;8.90;99.90
15947;DHT22;8072;52.554;7.966;2023-04-12T05:38:00;8.80;99.90
15947;DHT22;8072;52.554;7.966;2023-04-12T05:40:25;8.90;99.90
15947;DHT22;8072;52.554;7.966;2023-04-12T05:42:52;8.90;99.90
15947;DHT22;8072;52.554;7.966;2023-04-12T05:45:18;8.90;99.90
15947;DHT22;8072;52.554;7.966;2023-04-12T05:47:43;8.90;99.90
15947;DHT22;8072;52.554;7.966;2023-04-12T05:50:09;8.90;99.90
15947;DHT22;8072;52.554;7.966;2023-04-12T05:52:36;8.90;99.90
15947;DHT22;8072;52.554;7.966;2023-04-12T05:55:02;9.00;99.90
15947;DHT22;8072;52.554;7.966;2023-04-12T05:57:27;9.00;99.90
15947;DHT22;8072;52.554;7.966;2023-04-12T05:59:53;9.10;99.90
15947;DHT22;8072;52.554;7.966;2023-04-12T06:02:19;9.10;99.90
15947;DHT22;8072;52.554;7.966;2023-04-12T06:04:45;9.20;99.90
15947;DHT22;8072;52.554;7.966;2023-04-12T06:07:11;9.20;99.90
15947;DHT22;8072;52.554;7.966;2023-04-12T06:09:37;9.20;99.90
15947;DHT22;8072;52.554;7.966;2023-04-12T06:12:04;9.20;99.90
15947;DHT22;8072;52.554;7.966;2023-04-12T06:14:29;9.20;99.90
15947;DHT22;8072;52.554;7.966;2023-04-12T06:16:55;9.30;99.90
15947;DHT22;8072;52.554;7.966;2023-04-12T06:19:21;9.20;99.90
15947;DHT22;8072;52.554;7.966;2023-04-12T06:21:46;9.30;99.90
15947;DHT22;8072;52.554;7.966;2023-04-12T06:24:12;9.30;99.90
15947;DHT22;8072;52.554;7.966;2023-04-12T06:26:38;9.20;99.90
15947;DHT22;8072;52.554;7.966;2023-04-12T06:29:04;9.20;99.90
15947;DHT22;8072;52.554;7.966;2023-04-12T06:31:29;9.20;99.90
15947;DHT22;8072;52.554;7.966;2023-04-12T06:33:56;9.20;99.90
15947;DHT22;8072;52.554;7.966;2023-04-12T06:36:21;9.10;99.90
15947;DHT22;8072;52.554;7.966;2023-04-12T06:38:47;9.10;99.90
15947;DHT22;8072;52.554;7.966;2023-04-12T06:41:15;9.10;99.90
15947;DHT22;8072;52.554;7.966;2023-04-12T06:43:41;9.10;99.90
15947;DHT22;8072;52.554;7.966;2023-04-12T06:46:06;9.10;99.90
15947;DHT22;8072;52.554;7.966;2023-04-12T06:48:33;9.00;99.90
15947;DHT22;8072;52.554;7.966;2023-04-12T06:50:59;9.00;99.90
15947;DHT22;8072;52.554;7.966;2023-04-12T06:53:24;9.00;99.90
15947;DHT22;8072;52.554;7.966;2023-04-12T06:55:50;9.00;99.90
15947;DHT22;8072;52.554;7.966;2023-04-12T06:58:18;8.90;99.90
15947;DHT22;8072;52.554;7.966;2023-04-12T07:00:43;8.90;99.90
15947;DHT22;8072;52.554;7.966;2023-04-12T07:03:09;8.90;99.90
15947;DHT22;8072;52.554;7.966;2023-04-12T07:05:38;8.90;99.90
15947;DHT22;8072;52.554;7.966;2023-04-12T07:08:04;8.90;99.90
15947;DHT22;8072;52.554;7.966;2023-04-12T07:10:30;9.00;99.90
15947;DHT22;8072;52.554;7.966;2023-04-12T07:12:55;8.90;99.90
15947;DHT22;8072;52.554;7.966;2023-04-12T07:15:23;8.90;99.90
15947;DHT22;8072;52.554;7.966;2023-04-12T07:17:49;8.90;99.90
15947;DHT22;8072;52.554;7.966;2023-04-12T07:20:15;8.90;99.90
15947;DHT22;8072;52.554;7.966;2023-04-12T07:22:41;8.90;99.90
15947;DHT22;8072;52.554;7.966;2023-04-12T07:25:07;8.90;99.90
15947;DHT22;8072;52.554;7.966;2023-04-12T07:27:35;8.90;99.90
15947;DHT22;8072;52.554;7.966;2023-04-12T07:30:01;8.90;99.90
15947;DHT22;8072;52.554;7.966;2023-04-12T07:32:28;9.00;99.90
15947;DHT22;8072;52.554;7.966;2023-04-12T07:34:53;9.00;99.90
15947;DHT22;8072;52.554;7.966;2023-04-12T07:37:19;9.00;99.90
15947;DHT22;8072;52.554;7.966;2023-04-12T07:39:45;9.00;99.90
15947;DHT22;8072;52.554;7.966;2023-04-12T07:42:10;9.00;99.90
15947;DHT22;8072;52.554;7.966;2023-04-12T07:44:36;9.00;99.90
15947;DHT22;8072;52.554;7.966;2023-04-12T07:47:02;9.00;99.90
15947;DHT22;8072;52.554;7.966;2023-04-12T07:49:27;9.00;99.90
15947;DHT22;8072;52.554;7.966;2023-04-12T07:51:53;8.90;99.90
15947;DHT22;8072;52.554;7.966;2023-04-12T07:54:19;9.00;99.90
15947;DHT22;8072;52.554;7.966;2023-04-12T07:57:01;9.00;99.90
15947;DHT22;8072;52.554;7.966;2023-04-12T07:59:28;9.00;99.90
15947;DHT22;8072;52.554;7.966;2023-04-12T08:01:54;9.00;99.90
15947;DHT22;8072;52.554;7.966;2023-04-12T08:04:19;9.00;99.90
15947;DHT22;8072;52.554;7.966;2023-04-12T08:06:45;9.00;99.90
15947;DHT22;8072;52.554;7.966;2023-04-12T08:09:11;9.00;99.90
15947;DHT22;8072;52.554;7.966;2023-04-12T08:11:37;9.00;99.90
15947;DHT22;8072;52.554;7.966;2023-04-12T08:14:02;9.00;99.90
15947;DHT22;8072;52.554;7.966;2023-04-12T08:16:28;9.00;99.90
15947;DHT22;8072;52.554;7.966;2023-04-12T08:18:55;9.00;99.90
15947;DHT22;8072;52.554;7.966;2023-04-12T08:21:20;9.00;99.90
15947;DHT22;8072;52.554;7.966;2023-04-12T08:23:47;9.00;99.90
15947;DHT22;8072;52.554;7.966;2023-04-12T08:26:15;8.90;99.90
15947;DHT22;8072;52.554;7.966;2023-04-12T08:28:41;9.00;99.90
15947;DHT22;8072;52.554;7.966;2023-04-12T08:31:07;9.00;99.90
15947;DHT22;8072;52.554;7.966;2023-04-12T08:33:33;8.90;99.90
15947;DHT22;8072;52.554;7.966;2023-04-12T08:35:58;8.90;99.90
15947;DHT22;8072;52.554;7.966;2023-04-12T08:38:25;8.90;99.90
15947;DHT22;8072;52.554;7.966;2023-04-12T08:40:50;8.80;99.90
15947;DHT22;8072;52.554;7.966;2023-04-12T08:43:17;8.80;99.90
15947;DHT22;8072;52.554;7.966;2023-04-12T08:45:48;8.80;99.90
15947;DHT22;8072;52.554;7.966;2023-04-12T08:48:14;8.80;99.90
15947;DHT22;8072;52.554;7.966;2023-04-12T08:50:43;8.80;99.90
15947;DHT22;8072;52.554;7.966;2023-04-12T08:53:09;8.70;99.90
15947;DHT22;8072;52.554;7.966;2023-04-12T08:55:35;8.70;99.90
15947;DHT22;8072;52.554;7.966;2023-04-12T08:58:02;8.80;99.90
15947;DHT22;8072;52.554;7.966;2023-04-12T09:00:32;8.80;99.90
15947;DHT22;8072;52.554;7.966;2023-04-12T09:02:58;8.90;99.90
15947;DHT22;8072;52.554;7.966;2023-04-12T09:05:30;8.90;99.90
15947;DHT22;8072;52.554;7.966;2023-04-12T09:07:57;8.90;99.90
15947;DHT22;8072;52.554;7.966;2023-04-12T09:10:43;8.90;99.90
15947;DHT22;8072;52.554;7.966;2023-04-12T09:13:08;8.90;99.90
15947;DHT22;8072;52.554;7.966;2023-04-12T09:15:34;8.90;99.90
15947;DHT22;8072;52.554;7.966;2023-04-12T09:18:07;8.90;99.90
15947;DHT22;8072;52.554;7.966;2023-04-12T09:20:33;9.00;99.90
15947;DHT22;8072;52.554;7.966;2023-04-12T09:22:59;9.00;99.90
15947;DHT22;8072;52.554;7.966;2023-04-12T09:25:42;9.00;99.90
15947;DHT22;8072;52.554;7.966;2023-04-12T09:28:25;9.00;99.90
15947;DHT22;8072;52.554;7.966;2023-04-12T09:30:52;9.00;99.90
15947;DHT22;8072;52.554;7.966;2023-04-12T09:33:20;9.00;99.90
15947;DHT22;8072;52.554;7.966;2023-04-12T09:35:46;9.10;99.90
15947;DHT22;8072;52.554;7.966;2023-04-12T09:38:12;9.10;99.90
15947;DHT22;8072;52.554;7.966;2023-04-12T09:40:38;9.20;99.90
15947;DHT22;8072;52.554;7.966;2023-04-12T09:43:05;9.20;99.90
15947;DHT22;8072;52.554;7.966;2023-04-12T09:45:36;9.30;99.90
15947;DHT22;8072;52.554;7.966;2023-04-12T09:48:04;9.20;99.90
15947;DHT22;8072;52.554;7.966;2023-04-12T09:50:30;9.30;99.90
15947;DHT22;8072;52.554;7.966;2023-04-12T09:53:03;9.30;99.90
15947;DHT22;8072;52.554;7.966;2023-04-12T09:55:39;9.30;99.90
15947;DHT22;8072;52.554;7.966;2023-04-12T09:58:05;9.30;99.90
15947;DHT22;8072;52.554;7.966;2023-04-12T10:00:31;9.30;99.90
15947;DHT22;8072;52.554;7.966;2023-04-12T10:02:59;9.30;99.90
15947;DHT22;8072;52.554;7.966;2023-04-12T10:05:25;9.30;99.90
15947;DHT22;8072;52.554;7.966;2023-04-12T10:07:51;9.30;99.90
15947;DHT22;8072;52.554;7.966;2023-04-12T10:10:18;9.30;99.90
15947;DHT22;8072;52.554;7.966;2023-04-12T10:12:45;9.40;99.90
15947;DHT22;8072;52.554;7.966;2023-04-12T10:15:12;9.40;99.90
15947;DHT22;8072;52.554;7.966;2023-04-12T10:17:51;9.40;99.90
15947;DHT22;8072;52.554;7.966;2023-04-12T10:20:19;9.40;99.90
15947;DHT22;8072;52.554;7.966;2023-04-12T10:22:47;9.40;99.90
15947;DHT22;8072;52.554;7.966;2023-04-12T10:25:18;9.50;99.90
15947;DHT22;8072;52.554;7.966;2023-04-12T10:27:45;9.50;99.90
15947;DHT22;8072;52.554;7.966;2023-04-12T10:30:41;9.50;99.90
15947;DHT22;8072;52.554;7.966;2023-04-12T10:33:11;9.50;99.90
15947;DHT22;8072;52.554;7.966;2023-04-12T10:38:20;9.50;99.90
15947;DHT22;8072;52.554;7.966;2023-04-12T10:43:46;9.50;99.90
15947;DHT22;8072;52.554;7.966;2023-04-12T10:49:12;9.50;99.90
15947;DHT22;8072;52.554;7.966;2023-04-12T10:51:39;9.40;99.90
15947;DHT22;8072;52.554;7.966;2023-04-12T10:56:43;9.40;99.90
15947;DHT22;8072;52.554;7.966;2023-04-12T10:59:10;9.40;99.90
15947;DHT22;8072;52.554;7.966;2023-04-12T11:01:37;9.50;99.90
15947;DHT22;8072;52.554;7.966;2023-04-12T11:04:19;9.40;99.90
15947;DHT22;8072;52.554;7.966;2023-04-12T11:09:18;9.50;99.90
15947;DHT22;8072;52.554;7.966;2023-04-12T11:11:44;9.40;99.90
15947;DHT22;8072;52.554;7.966;2023-04-12T11:14:15;9.40;99.90
15947;DHT22;8072;52.554;7.966;2023-04-12T11:19:32;9.50;99.90
15947;DHT22;8072;52.554;7.966;2023-04-12T11:22:03;9.50;99.90
15947;DHT22;8072;52.554;7.966;2023-04-12T11:24:29;9.60;99.90
15947;DHT22;8072;52.554;7.966;2023-04-12T11:26:56;9.70;99.90
15947;DHT22;8072;52.554;7.966;2023-04-12T11:29:22;9.80;99.90
15947;DHT22;8072;52.554;7.966;2023-04-12T11:31:48;9.80;99.90
15947;DHT22;8072;52.554;7.966;2023-04-12T11:34:16;9.90;99.90
15947;DHT22;8072;52.554;7.966;2023-04-12T11:36:47;10.00;99.90
15947;DHT22;8072;52.554;7.966;2023-04-12T11:39:13;10.10;99.90
15947;DHT22;8072;52.554;7.966;2023-04-12T11:41:46;10.10;99.90
15947;DHT22;8072;52.554;7.966;2023-04-12T11:44:13;10.20;99.90
15947;DHT22;8072;52.554;7.966;2023-04-12T11:46:40;10.20;99.90
15947;DHT22;8072;52.554;7.966;2023-04-12T11:49:05;10.20;99.90
15947;DHT22;8072;52.554;7.966;2023-04-12T11:51:31;10.20;99.90
15947;DHT22;8072;52.554;7.966;2023-04-12T11:53:58;10.20;99.90
15947;DHT22;8072;52.554;7.966;2023-04-12T11:56:30;10.30;99.90
15947;DHT22;8072;52.554;7.966;2023-04-12T11:58:57;10.30;99.90
15947;DHT22;8072;52.554;7.966;2023-04-12T12:01:23;10.30;99.90
15947;DHT22;8072;52.554;7.966;2023-04-12T12:03:49;10.20;99.90
15947;DHT22;8072;52.554;7.966;2023-04-12T12:06:15;10.30;99.90
15947;DHT22;8072;52.554;7.966;2023-04-12T12:08:42;10.20;99.90
15947;DHT22;8072;52.554;7.966;2023-04-12T12:11:07;10.10;99.90
15947;DHT22;8072;52.554;7.966;2023-04-12T12:13:50;10.10;99.90
15947;DHT22;8072;52.554;7.966;2023-04-12T12:16:19;10.10;99.90
15947;DHT22;8072;52.554;7.966;2023-04-12T12:18:48;10.10;99.90
15947;DHT22;8072;52.554;7.966;2023-04-12T12:21:14;10.10;99.90
15947;DHT22;8072;52.554;7.966;2023-04-12T12:23:44;10.10;99.90
15947;DHT22;8072;52.554;7.966;2023-04-12T12:26:22;10.10;99.90
15947;DHT22;8072;52.554;7.966;2023-04-12T12:28:53;10.20;99.90
15947;DHT22;8072;52.554;7.966;2023-04-12T12:31:23;10.20;99.90
15947;DHT22;8072;52.554;7.966;2023-04-12T12:33:56;10.30;99.90
15947;DHT22;8072;52.554;7.966;2023-04-12T12:39:11;10.40;99.90
15947;DHT22;8072;52.554;7.966;2023-04-12T12:41:37;10.40;99.90
15947;DHT22;8072;52.554;7.966;2023-04-12T12:44:03;10.40;99.90
15947;DHT22;8072;52.554;7.966;2023-04-12T12:46:29;10.40;99.90
15947;DHT22;8072;52.554;7.966;2023-04-12T12:48:55;10.40;99.90
15947;DHT22;8072;52.554;7.966;2023-04-12T12:51:21;10.40;99.90
15947;DHT22;8072;52.554;7.966;2023-04-12T12:53:47;10.50;99.90
15947;DHT22;8072;52.554;7.966;2023-04-12T12:56:14;10.50;99.90
15947;DHT22;8072;52.554;7.966;2023-04-12T12:58:40;10.50;99.90
15947;DHT22;8072;52.554;7.966;2023-04-12T13:01:07;10.60;99.90
15947;DHT22;8072;52.554;7.966;2023-04-12T13:03:33;10.60;99.90
15947;DHT22;8072;52.554;7.966;2023-04-12T13:05:59;10.70;99.90
15947;DHT22;8072;52.554;7.966;2023-04-12T13:08:26;10.70;99.90
15947;DHT22;8072;52.554;7.966;2023-04-12T13:10:52;10.70;99.90
15947;DHT22;8072;52.554;7.966;2023-04-12T13:13:18;10.70;99.90
15947;DHT22;8072;52.554;7.966;2023-04-12T13:15:44;10.70;99.90
15947;DHT22;8072;52.554;7.966;2023-04-12T13:18:13;10.70;99.90
15947;DHT22;8072;52.554;7.966;2023-04-12T13:20:42;10.70;99.90
15947;DHT22;8072;52.554;7.966;2023-04-12T13:23:07;10.70;99.90
15947;DHT22;8072;52.554;7.966;2023-04-12T13:25:33;10.70;99.90
15947;DHT22;8072;52.554;7.966;2023-04-12T13:27:59;10.70;99.90
15947;DHT22;8072;52.554;7.966;2023-04-12T13:30:25;10.80;99.90
15947;DHT22;8072;52.554;7.966;2023-04-12T13:32:52;10.90;99.90
15947;DHT22;8072;52.554;7.966;2023-04-12T13:35:18;11.10;99.90
15947;DHT22;8072;52.554;7.966;2023-04-12T13:37:44;11.10;99.90
15947;DHT22;8072;52.554;7.966;2023-04-12T13:40:10;11.30;99.90
15947;DHT22;8072;52.554;7.966;2023-04-12T13:42:36;11.40;99.90
15947;DHT22;8072;52.554;7.966;2023-04-12T13:45:02;11.70;99.90
15947;DHT22;8072;52.554;7.966;2023-04-12T13:47:29;12.00;99.90
15947;DHT22;8072;52.554;7.966;2023-04-12T13:49:54;12.00;99.90
15947;DHT22;8072;52.554;7.966;2023-04-12T13:52:20;12.10;99.90
15947;DHT22;8072;52.554;7.966;2023-04-12T13:54:46;12.30;99.90
15947;DHT22;8072;52.554;7.966;2023-04-12T13:57:12;12.40;99.90
15947;DHT22;8072;52.554;7.966;2023-04-12T13:59:38;12.30;99.90
15947;DHT22;8072;52.554;7.966;2023-04-12T14:02:04;12.40;99.90
15947;DHT22;8072;52.554;7.966;2023-04-12T14:04:30;12.50;99.90
15947;DHT22;8072;52.554;7.966;2023-04-12T14:06:56;12.50;99.90
15947;DHT22;8072;52.554;7.966;2023-04-12T14:09:27;12.80;99.90
15947;DHT22;8072;52.554;7.966;2023-04-12T14:11:55;12.80;99.90
15947;DHT22;8072;52.554;7.966;2023-04-12T14:14:23;12.80;99.90
15947;DHT22;8072;52.554;7.966;2023-04-12T14:16:50;12.90;99.90
15947;DHT22;8072;52.554;7.966;2023-04-12T14:19:18;12.90;99.90
15947;DHT22;8072;52.554;7.966;2023-04-12T14:21:44;13.00;99.90
15947;DHT22;8072;52.554;7.966;2023-04-12T14:24:10;13.20;99.90
15947;DHT22;8072;52.554;7.966;2023-04-12T14:26:35;13.50;99.90
15947;DHT22;8072;52.554;7.966;2023-04-12T14:29:07;13.50;99.90
15947;DHT22;8072;52.554;7.966;2023-04-12T14:31:34;13.60;99.90
15947;DHT22;8072;52.554;7.966;2023-04-12T14:34:01;13.70;99.90
15947;DHT22;8072;52.554;7.966;2023-04-12T14:36:27;13.80;99.90
15947;DHT22;8072;52.554;7.966;2023-04-12T14:38:54;13.70;99.90
15947;DHT22;8072;52.554;7.966;2023-04-12T14:41:20;13.80;99.90
15947;DHT22;8072;52.554;7.966;2023-04-12T14:43:46;13.60;99.90
15947;DHT22;8072;52.554;7.966;2023-04-12T14:46:12;13.50;99.90
15947;DHT22;8072;52.554;7.966;2023-04-12T14:48:37;13.30;99.90
15947;DHT22;8072;52.554;7.966;2023-04-12T14:51:03;13.20;99.90
15947;DHT22;8072;52.554;7.966;2023-04-12T14:53:31;13.10;99.90
15947;DHT22;8072;52.554;7.966;2023-04-12T14:55:56;13.10;99.90
15947;DHT22;8072;52.554;7.966;2023-04-12T14:58:24;13.10;99.90
15947;DHT22;8072;52.554;7.966;2023-04-12T15:00:54;13.20;99.90
15947;DHT22;8072;52.554;7.966;2023-04-12T15:03:20;13.30;99.90
15947;DHT22;8072;52.554;7.966;2023-04-12T15:05:46;13.50;99.90
15947;DHT22;8072;52.554;7.966;2023-04-12T15:08:13;13.60;99.90
15947;DHT22;8072;52.554;7.966;2023-04-12T15:10:39;13.60;99.90
15947;DHT22;8072;52.554;7.966;2023-04-12T15:13:04;13.50;99.90
15947;DHT22;8072;52.554;7.966;2023-04-12T15:15:30;13.40;99.90
15947;DHT22;8072;52.554;7.966;2023-04-12T15:17:56;13.20;99.90
15947;DHT22;8072;52.554;7.966;2023-04-12T15:20:22;12.90;99.90
15947;DHT22;8072;52.554;7.966;2023-04-12T15:22:48;12.80;99.90
15947;DHT22;8072;52.554;7.966;2023-04-12T15:25:14;12.70;99.90
15947;DHT22;8072;52.554;7.966;2023-04-12T15:27:39;12.70;99.90
15947;DHT22;8072;52.554;7.966;2023-04-12T15:30:06;12.20;99.90
15947;DHT22;8072;52.554;7.966;2023-04-12T15:32:38;11.80;99.90
15947;DHT22;8072;52.554;7.966;2023-04-12T15:35:06;11.50;99.90
15947;DHT22;8072;52.554;7.966;2023-04-12T15:37:33;11.10;99.90
15947;DHT22;8072;52.554;7.966;2023-04-12T15:40:01;10.70;99.90
15947;DHT22;8072;52.554;7.966;2023-04-12T15:42:31;10.20;99.90
15947;DHT22;8072;52.554;7.966;2023-04-12T15:44:57;9.80;99.90
15947;DHT22;8072;52.554;7.966;2023-04-12T15:47:23;9.70;99.90
15947;DHT22;8072;52.554;7.966;2023-04-12T15:49:48;9.60;99.90
15947;DHT22;8072;52.554;7.966;2023-04-12T15:52:15;9.30;99.90
15947;DHT22;8072;52.554;7.966;2023-04-12T15:54:41;9.20;99.90
15947;DHT22;8072;52.554;7.966;2023-04-12T15:57:07;9.00;99.90
15947;DHT22;8072;52.554;7.966;2023-04-12T15:59:38;9.00;99.90
15947;DHT22;8072;52.554;7.966;2023-04-12T16:02:04;8.90;99.90
15947;DHT22;8072;52.554;7.966;2023-04-12T16:04:37;8.80;99.90
15947;DHT22;8072;52.554;7.966;2023-04-12T16:07:03;8.70;99.90
15947;DHT22;8072;52.554;7.966;2023-04-12T16:09:31;8.70;99.90
15947;DHT22;8072;52.554;7.966;2023-04-12T16:11:58;8.70;99.90
15947;DHT22;8072;52.554;7.966;2023-04-12T16:14:24;8.70;99.90
15947;DHT22;8072;52.554;7.966;2023-04-12T16:16:50;8.60;99.90
15947;DHT22;8072;52.554;7.966;2023-04-12T16:19:16;8.60;99.90
15947;DHT22;8072;52.554;7.966;2023-04-12T16:21:42;8.60;99.90
15947;DHT22;8072;52.554;7.966;2023-04-12T16:24:09;8.50;99.90